createdAt,value
2023-02-11T00:00:09.973Z,10.57
2023-02-11T00:02:36.562Z,10.77
2023-02-11T00:05:03.167Z,9.90
2023-02-11T00:07:30.566Z,9.70
2023-02-11T00:09:57.008Z,10.07
2023-02-11T00:12:23.626Z,10.25
2023-02-11T00:14:50.145Z,9.85
2023-02-11T00:17:16.693Z,10.55
2023-02-11T00:19:43.229Z,10.02
2023-02-11T00:22:09.651Z,9.45
2023-02-11T00:24:36.697Z,9.80
2023-02-11T00:27:03.259Z,8.85
2023-02-11T00:29:29.703Z,10.07
2023-02-11T00:31:56.228Z,10.10
2023-02-11T00:34:22.736Z,9.35
2023-02-11T00:36:49.489Z,10.35
2023-02-11T00:39:15.950Z,9.98
2023-02-11T00:41:42.410Z,9.55
2023-02-11T00:44:08.998Z,10.55
2023-02-11T00:46:35.576Z,9.88
2023-02-11T00:49:02.052Z,10.18
2023-02-11T00:51:28.797Z,10.90
2023-02-11T00:53:55.317Z,11.07
2023-02-11T00:56:21.924Z,9.88
2023-02-11T00:58:48.342Z,9.70
2023-02-11T01:01:14.944Z,9.48
2023-02-11T01:03:45.246Z,9.82
2023-02-11T01:06:12.236Z,10.20
2023-02-11T01:08:39.044Z,10.13
2023-02-11T01:11:06.996Z,10.32
2023-02-11T01:13:34.604Z,10.25
2023-02-11T01:16:01.166Z,8.48
2023-02-11T01:18:27.667Z,10.10
2023-02-11T01:20:54.494Z,8.90
2023-02-11T01:23:21.392Z,10.45
2023-02-11T01:25:48.158Z,9.57
2023-02-11T01:28:18.753Z,9.57
2023-02-11T01:30:45.425Z,8.45
2023-02-11T01:33:12.075Z,8.73
2023-02-11T01:35:39.567Z,8.82
2023-02-11T01:38:14.905Z,9.40
2023-02-11T01:40:46.397Z,9.60
2023-02-11T01:43:12.807Z,9.50
2023-02-11T01:45:42.395Z,8.80
2023-02-11T01:48:09.367Z,8.57
2023-02-11T01:50:36.770Z,8.80
2023-02-11T01:53:23.240Z,9.23
2023-02-11T01:56:09.520Z,9.70
2023-02-11T01:58:37.361Z,9.45
2023-02-11T02:01:04.915Z,8.18
2023-02-11T02:03:34.214Z,7.88
2023-02-11T02:06:10.909Z,8.35
2023-02-11T02:08:42.655Z,8.80
2023-02-11T02:11:09.221Z,8.23
2023-02-11T02:13:36.066Z,7.47
2023-02-11T02:16:04.779Z,8.45
2023-02-11T02:18:51.234Z,8.60
2023-02-11T02:21:36.753Z,7.47
2023-02-11T02:24:03.130Z,7.22
2023-02-11T02:26:32.651Z,7.10
2023-02-11T02:29:19.872Z,8.05
2023-02-11T02:32:05.123Z,7.85
2023-02-11T02:34:37.760Z,7.47
2023-02-11T02:37:18.184Z,7.57
2023-02-11T02:39:45.751Z,7.82
2023-02-11T02:42:13.092Z,6.93
2023-02-11T02:44:39.570Z,7.53
2023-02-11T02:47:06.051Z,7.57
2023-02-11T02:49:32.483Z,7.25
2023-02-11T02:52:03.836Z,7.70
2023-02-11T02:54:43.079Z,7.25
2023-02-11T02:57:15.535Z,7.90
2023-02-11T02:59:51.151Z,7.38
2023-02-11T03:02:29.185Z,7.78
2023-02-11T03:04:58.662Z,8.10
2023-02-11T03:07:43.898Z,7.18
2023-02-11T03:10:15.794Z,8.73
2023-02-11T03:12:43.867Z,7.22
2023-02-11T03:15:11.907Z,7.40
2023-02-11T03:17:39.876Z,8.27
2023-02-11T03:20:06.968Z,8.70
2023-02-11T03:22:35.566Z,8.65
2023-02-11T03:25:02.464Z,8.35
2023-02-11T03:27:31.947Z,8.68
2023-02-11T03:30:04.649Z,8.70
2023-02-11T03:32:34.910Z,7.60
2023-02-11T03:35:05.260Z,8.05
2023-02-11T03:37:41.099Z,7.78
2023-02-11T03:40:10.247Z,8.68
2023-02-11T03:42:40.233Z,8.43
2023-02-11T03:45:09.357Z,8.90
2023-02-11T03:47:37.975Z,8.93
2023-02-11T03:50:06.318Z,9.30
2023-02-11T03:52:34.156Z,8.57
2023-02-11T03:55:01.761Z,9.25
2023-02-11T03:57:28.511Z,9.15
2023-02-11T03:59:56.734Z,9.63
2023-02-11T04:02:34.345Z,9.65
2023-02-11T04:05:00.807Z,9.07
2023-02-11T04:07:27.365Z,9.23
2023-02-11T04:09:54.038Z,8.30
2023-02-11T04:12:20.853Z,9.32
2023-02-11T04:14:47.340Z,9.38
2023-02-11T04:17:13.779Z,8.52
2023-02-11T04:19:40.202Z,9.52
2023-02-11T04:22:06.925Z,9.57
2023-02-11T04:24:33.624Z,10.15
2023-02-11T04:27:00.129Z,9.43
2023-02-11T04:29:26.616Z,9.68
2023-02-11T04:31:53.171Z,9.65
2023-02-11T04:34:19.672Z,9.85
2023-02-11T04:36:46.102Z,10.65
2023-02-11T04:39:12.787Z,10.63
2023-02-11T04:41:39.352Z,10.38
2023-02-11T04:44:05.834Z,11.10
2023-02-11T04:46:32.368Z,10.50
2023-02-11T04:48:58.818Z,11.30
2023-02-11T04:51:25.661Z,12.30
2023-02-11T04:53:52.287Z,10.98
2023-02-11T04:56:18.783Z,12.95
2023-02-11T04:58:45.270Z,12.57
2023-02-11T05:01:13.180Z,12.85
2023-02-11T05:03:39.790Z,11.75
2023-02-11T05:06:06.581Z,12.88
2023-02-11T05:08:33.453Z,12.07
2023-02-11T05:11:00.053Z,12.93
2023-02-11T05:13:26.628Z,13.40
2023-02-11T05:15:53.349Z,12.73
2023-02-11T05:18:19.933Z,13.13
2023-02-11T05:20:46.388Z,13.05
2023-02-11T05:23:12.869Z,13.05
2023-02-11T05:25:39.562Z,12.85
2023-02-11T05:28:06.650Z,13.25
2023-02-11T05:30:33.450Z,13.05
2023-02-11T05:32:59.926Z,13.52
2023-02-11T05:35:26.391Z,12.75
2023-02-11T05:37:52.961Z,13.18
2023-02-11T05:40:19.488Z,14.07
2023-02-11T05:42:45.987Z,13.35
2023-02-11T05:45:12.400Z,13.60
2023-02-11T05:47:38.822Z,14.65
2023-02-11T05:50:05.521Z,14.13
2023-02-11T05:52:32.049Z,13.80
2023-02-11T05:54:58.762Z,15.98
2023-02-11T05:57:25.242Z,15.57
2023-02-11T05:59:51.706Z,14.95
2023-02-11T06:02:18.219Z,15.23
2023-02-11T06:04:44.742Z,13.95
2023-02-11T06:07:11.289Z,14.23
2023-02-11T06:09:37.881Z,17.15
2023-02-11T06:12:04.525Z,16.00
2023-02-11T06:14:32.793Z,15.57
2023-02-11T06:16:59.271Z,15.95
2023-02-11T06:19:25.745Z,16.98
2023-02-11T06:21:52.219Z,16.33
2023-02-11T06:24:33.092Z,16.02
2023-02-11T06:27:05.320Z,16.55
2023-02-11T06:29:31.750Z,15.95
2023-02-11T06:31:58.325Z,17.15
2023-02-11T06:34:24.822Z,17.20
2023-02-11T06:36:51.247Z,17.85
2023-02-11T06:39:17.732Z,18.65
2023-02-11T06:41:44.190Z,19.27
2023-02-11T06:44:10.598Z,20.52
2023-02-11T06:46:37.123Z,20.65
2023-02-11T06:49:03.741Z,21.05
2023-02-11T06:51:30.198Z,20.65
2023-02-11T06:53:56.644Z,20.77
2023-02-11T06:56:24.376Z,19.77
2023-02-11T06:58:55.507Z,20.98
2023-02-11T07:01:22.296Z,20.95
2023-02-11T07:03:49.117Z,22.67
2023-02-11T07:06:16.978Z,22.58
2023-02-11T07:08:45.951Z,20.65
2023-02-11T07:11:14.003Z,21.52
2023-02-11T07:13:40.565Z,21.92
2023-02-11T07:16:07.858Z,24.80
2023-02-11T07:18:34.420Z,23.80
2023-02-11T07:21:04.433Z,23.98
2023-02-11T07:23:30.879Z,23.48
2023-02-11T07:25:57.439Z,23.77
2023-02-11T07:28:23.883Z,23.05
2023-02-11T07:30:50.403Z,26.42
2023-02-11T07:33:16.923Z,26.30
2023-02-11T07:35:43.332Z,26.67
2023-02-11T07:38:09.831Z,30.33
2023-02-11T07:40:36.497Z,30.60
2023-02-11T07:43:03.046Z,28.55
2023-02-11T07:45:29.476Z,28.77
2023-02-11T07:47:55.902Z,29.60
2023-02-11T07:50:22.339Z,28.35
2023-02-11T07:52:48.765Z,30.20
2023-02-11T07:55:15.342Z,32.53
2023-02-11T07:57:41.764Z,31.48
2023-02-11T08:00:08.536Z,31.52
2023-02-11T08:02:34.993Z,31.52
2023-02-11T08:05:01.554Z,33.10
2023-02-11T08:07:30.471Z,33.45
2023-02-11T08:09:57.011Z,35.45
2023-02-11T08:12:23.524Z,35.90
2023-02-11T08:14:51.343Z,34.55
2023-02-11T08:17:20.203Z,36.03
2023-02-11T08:19:46.666Z,35.83
2023-02-11T08:22:13.123Z,37.47
2023-02-11T08:24:39.560Z,37.08
2023-02-11T08:27:06.026Z,37.17
2023-02-11T08:29:32.485Z,37.13
2023-02-11T08:31:59.088Z,38.28
2023-02-11T08:34:25.579Z,38.20
2023-02-11T08:36:52.100Z,38.85
2023-02-11T08:39:21.037Z,36.83
2023-02-11T08:41:52.351Z,38.25
2023-02-11T08:44:19.928Z,38.42
2023-02-11T08:46:46.686Z,38.00
2023-02-11T08:49:13.571Z,38.97
2023-02-11T08:51:40.097Z,41.35
2023-02-11T08:54:09.584Z,40.58
2023-02-11T08:56:36.739Z,41.75
2023-02-11T08:59:03.340Z,41.63
2023-02-11T09:01:30.975Z,43.08
2023-02-11T09:03:58.031Z,43.80
2023-02-11T09:06:25.135Z,40.60
2023-02-11T09:08:53.408Z,41.33
2023-02-11T09:11:20.685Z,42.10
2023-02-11T09:13:47.111Z,41.83
2023-02-11T09:16:18.310Z,43.13
2023-02-11T09:18:45.718Z,42.70
2023-02-11T09:21:12.686Z,44.33
2023-02-11T09:23:41.840Z,44.53
2023-02-11T09:26:09.723Z,46.60
2023-02-11T09:28:36.434Z,43.95
2023-02-11T09:31:07.203Z,45.97
2023-02-11T09:33:33.904Z,46.47
2023-02-11T09:36:01.480Z,47.55
2023-02-11T09:38:27.996Z,46.55
2023-02-11T09:40:54.553Z,49.17
2023-02-11T09:43:22.649Z,47.90
2023-02-11T09:45:49.826Z,48.90
2023-02-11T09:48:16.458Z,46.92
2023-02-11T09:50:44.384Z,46.40
2023-02-11T09:53:14.539Z,49.58
2023-02-11T09:55:46.175Z,48.30
2023-02-11T09:58:20.634Z,50.15
2023-02-11T10:00:49.972Z,48.55
2023-02-11T10:03:45.671Z,51.00
2023-02-11T10:06:20.041Z,51.00
2023-02-11T10:09:04.777Z,52.05
2023-02-11T10:11:34.264Z,50.38
2023-02-11T10:14:15.937Z,53.08
2023-02-11T10:16:42.368Z,50.47
2023-02-11T10:19:10.976Z,53.85
2023-02-11T10:21:37.414Z,51.03
2023-02-11T10:24:10.085Z,53.10
2023-02-11T10:26:36.958Z,51.35
2023-02-11T10:29:12.346Z,52.88
2023-02-11T10:31:42.066Z,51.13
2023-02-11T10:34:12.978Z,52.25
2023-02-11T10:36:43.693Z,54.85
2023-02-11T10:39:15.746Z,52.58
2023-02-11T10:41:44.019Z,55.10
2023-02-11T10:44:36.987Z,52.67
2023-02-11T10:47:05.541Z,52.53
2023-02-11T10:49:36.895Z,55.50
2023-02-11T10:52:22.064Z,55.53
2023-02-11T10:54:59.658Z,55.30
2023-02-11T10:57:28.356Z,55.15
2023-02-11T10:59:58.886Z,53.85
2023-02-11T11:02:38.226Z,54.10
2023-02-11T11:05:08.159Z,54.40
2023-02-11T11:07:35.346Z,55.78
2023-02-11T11:10:03.905Z,51.78
2023-02-11T11:12:30.539Z,53.47
2023-02-11T11:15:04.501Z,56.67
2023-02-11T11:17:31.212Z,53.97
2023-02-11T11:20:26.685Z,52.78
2023-02-11T11:23:07.401Z,54.95
2023-02-11T11:25:39.717Z,52.20
2023-02-11T11:28:06.776Z,53.83
2023-02-11T11:30:38.747Z,53.10
2023-02-11T11:33:13.615Z,53.13
2023-02-11T11:35:40.950Z,52.70
2023-02-11T11:38:13.417Z,52.20
2023-02-11T11:40:40.088Z,52.50
2023-02-11T11:43:15.275Z,53.22
2023-02-11T11:45:55.816Z,53.60
2023-02-11T11:48:25.182Z,53.40
2023-02-11T11:51:00.555Z,52.80
2023-02-11T11:53:39.202Z,54.95
2023-02-11T11:56:09.599Z,52.28
2023-02-11T11:58:36.235Z,53.17
2023-02-11T12:01:18.083Z,52.17
2023-02-11T12:04:03.310Z,54.00
2023-02-11T12:06:35.966Z,54.95
2023-02-11T12:09:02.594Z,52.65
2023-02-11T12:11:48.135Z,53.63
2023-02-11T12:14:20.894Z,52.92
2023-02-11T12:17:10.648Z,52.77
2023-02-11T12:19:37.283Z,54.75
2023-02-11T12:22:03.978Z,53.03
2023-02-11T12:24:36.598Z,54.05
2023-02-11T12:27:08.849Z,54.53
2023-02-11T12:29:41.763Z,51.65
2023-02-11T12:32:14.734Z,52.78
2023-02-11T12:34:53.707Z,54.63
2023-02-11T12:37:32.456Z,53.35
2023-02-11T12:39:59.090Z,52.97
2023-02-11T12:42:52.285Z,50.58
2023-02-11T12:45:37.031Z,50.53
2023-02-11T12:48:22.965Z,53.60
2023-02-11T12:50:57.283Z,52.70
2023-02-11T12:53:23.849Z,54.50
2023-02-11T12:55:58.519Z,51.40
2023-02-11T12:58:32.635Z,53.17
2023-02-11T13:01:12.679Z,53.80
2023-02-11T13:03:43.398Z,54.47
2023-02-11T13:06:13.177Z,53.85
2023-02-11T13:08:43.585Z,52.67
2023-02-11T13:11:16.144Z,54.42
2023-02-11T13:13:45.473Z,52.78
2023-02-11T13:16:41.760Z,52.45
2023-02-11T13:19:08.263Z,52.03
2023-02-11T13:21:45.865Z,50.58
2023-02-11T13:24:15.559Z,53.35
2023-02-11T13:26:47.801Z,51.92
2023-02-11T13:29:23.616Z,50.30
2023-02-11T13:32:05.219Z,49.75
2023-02-11T13:34:40.926Z,49.80
2023-02-11T13:37:26.747Z,49.58
2023-02-11T13:39:59.402Z,50.25
2023-02-11T13:42:25.915Z,48.03
2023-02-11T13:44:52.949Z,47.40
2023-02-11T13:47:28.231Z,48.53
2023-02-11T13:49:54.744Z,46.83
2023-02-11T13:52:26.313Z,46.00
2023-02-11T13:54:54.580Z,46.88
2023-02-11T13:57:20.987Z,46.85
2023-02-11T13:59:51.684Z,47.70
2023-02-11T14:02:39.860Z,48.33
2023-02-11T14:05:24.964Z,48.33
2023-02-11T14:08:28.122Z,44.78
2023-02-11T14:11:08.720Z,47.03
2023-02-11T14:13:36.336Z,46.42
2023-02-11T14:16:36.497Z,46.40
2023-02-11T14:19:03.845Z,45.65
2023-02-11T14:21:32.457Z,42.75
2023-02-11T14:24:18.815Z,43.20
2023-02-11T14:26:58.402Z,42.88
2023-02-11T14:29:30.205Z,43.33
2023-02-11T14:31:59.821Z,44.97
2023-02-11T14:34:33.499Z,43.10
2023-02-11T14:37:22.618Z,41.38
2023-02-11T14:39:58.876Z,42.75
2023-02-11T14:42:27.495Z,41.47
2023-02-11T14:44:56.392Z,42.10
2023-02-11T14:47:29.780Z,42.88
2023-02-11T14:49:56.665Z,41.90
2023-02-11T14:52:23.066Z,44.35
2023-02-11T14:54:51.237Z,41.63
2023-02-11T14:57:19.272Z,42.72
2023-02-11T14:59:59.370Z,40.53
2023-02-11T15:02:29.922Z,40.75
2023-02-11T15:05:16.137Z,40.22
2023-02-11T15:07:44.200Z,40.88
2023-02-11T15:10:15.904Z,41.53
2023-02-11T15:12:47.648Z,40.20
2023-02-11T15:15:14.740Z,40.50
2023-02-11T15:17:41.886Z,39.55
2023-02-11T15:20:15.839Z,37.72
2023-02-11T15:22:44.648Z,34.00
2023-02-11T15:25:17.143Z,35.38
2023-02-11T15:27:45.254Z,36.47
2023-02-11T15:30:17.447Z,35.85
2023-02-11T15:32:44.945Z,33.25
2023-02-11T15:35:11.950Z,32.35
2023-02-11T15:37:39.215Z,31.95
2023-02-11T15:40:15.350Z,30.13
2023-02-11T15:42:54.183Z,29.77
2023-02-11T15:45:29.016Z,30.55
2023-02-11T15:48:14.209Z,29.33
2023-02-11T15:50:41.800Z,29.25
2023-02-11T15:53:17.629Z,27.55
2023-02-11T15:55:44.172Z,27.60
2023-02-11T15:58:10.905Z,29.38
2023-02-11T16:00:44.920Z,29.83
2023-02-11T16:03:25.061Z,29.83
2023-02-11T16:05:51.811Z,29.27
2023-02-11T16:08:21.239Z,30.13
2023-02-11T16:10:54.904Z,34.88
2023-02-11T16:13:21.346Z,35.45
2023-02-11T16:16:02.394Z,36.65
2023-02-11T16:18:40.164Z,37.78
2023-02-11T16:21:12.272Z,39.10
2023-02-11T16:23:42.045Z,37.58
2023-02-11T16:26:28.840Z,40.35
2023-02-11T16:29:05.624Z,38.22
2023-02-11T16:31:36.505Z,40.00
2023-02-11T16:34:03.015Z,39.88
2023-02-11T16:36:29.484Z,39.50
2023-02-11T16:38:55.931Z,42.10
2023-02-11T16:41:22.384Z,40.67
2023-02-11T16:43:48.822Z,41.55
2023-02-11T16:46:15.950Z,41.35
2023-02-11T16:48:42.536Z,41.60
2023-02-11T16:51:10.939Z,41.63
2023-02-11T16:53:37.416Z,42.53
2023-02-11T16:56:04.385Z,41.47
2023-02-11T16:58:30.835Z,41.03
2023-02-11T17:00:57.709Z,40.45
2023-02-11T17:03:26.966Z,41.17
2023-02-11T17:05:56.105Z,42.22
2023-02-11T17:08:23.488Z,42.72
2023-02-11T17:10:50.393Z,42.78
2023-02-11T17:13:17.015Z,42.42
2023-02-11T17:15:43.417Z,41.63
2023-02-11T17:18:12.309Z,41.28
2023-02-11T17:20:38.774Z,41.13
2023-02-11T17:23:05.245Z,42.25
2023-02-11T17:25:31.688Z,44.70
2023-02-11T17:27:58.261Z,43.38
2023-02-11T17:30:25.147Z,41.83
2023-02-11T17:32:51.605Z,44.10
2023-02-11T17:35:18.132Z,43.20
2023-02-11T17:37:44.588Z,45.28
2023-02-11T17:40:11.460Z,43.97
2023-02-11T17:42:37.935Z,46.13
2023-02-11T17:45:04.647Z,45.28
2023-02-11T17:47:31.123Z,44.45
2023-02-11T17:49:57.667Z,47.13
2023-02-11T17:52:24.842Z,46.13
2023-02-11T17:54:51.475Z,43.50
2023-02-11T17:57:17.920Z,45.00
2023-02-11T17:59:44.420Z,46.92
2023-02-11T18:02:11.852Z,45.25
2023-02-11T18:04:38.619Z,44.67
2023-02-11T18:07:05.181Z,43.25
2023-02-11T18:09:35.764Z,44.20
2023-02-11T18:12:02.239Z,44.63
2023-02-11T18:14:28.842Z,46.17
2023-02-11T18:16:55.348Z,43.60
2023-02-11T18:19:21.860Z,43.17
2023-02-11T18:21:51.009Z,43.53
2023-02-11T18:24:17.915Z,42.42
2023-02-11T18:26:44.412Z,38.65
2023-02-11T18:29:10.908Z,34.45
2023-02-11T18:31:37.736Z,30.55
2023-02-11T18:34:07.561Z,25.30
2023-02-11T18:36:34.513Z,24.02
2023-02-11T18:39:00.967Z,20.73
2023-02-11T18:41:27.487Z,20.15
2023-02-11T18:43:53.975Z,19.85
2023-02-11T18:46:20.458Z,18.70
2023-02-11T18:48:46.976Z,21.88
2023-02-11T18:51:18.410Z,19.80
2023-02-11T18:53:45.232Z,17.80
2023-02-11T18:56:13.032Z,16.15
2023-02-11T18:58:39.778Z,16.15
2023-02-11T19:01:10.428Z,13.90
2023-02-11T19:03:37.877Z,13.50
2023-02-11T19:06:04.456Z,9.98
2023-02-11T19:08:30.951Z,9.45
2023-02-11T19:10:57.400Z,9.55
2023-02-11T19:13:24.049Z,9.32
2023-02-11T19:15:50.847Z,7.95
2023-02-11T19:18:17.788Z,8.45
2023-02-11T19:20:44.610Z,9.20
2023-02-11T19:23:11.398Z,8.70
2023-02-11T19:25:38.124Z,9.45
2023-02-11T19:28:04.711Z,9.65
2023-02-11T19:30:31.392Z,10.32
2023-02-11T19:32:58.033Z,10.05
2023-02-11T19:35:25.166Z,9.95
2023-02-11T19:37:51.915Z,11.05
2023-02-11T19:40:19.293Z,11.95
2023-02-11T19:42:46.033Z,13.82
2023-02-11T19:45:12.612Z,14.93
2023-02-11T19:47:39.355Z,16.42
2023-02-11T19:50:06.120Z,17.27
2023-02-11T19:52:32.637Z,15.55
2023-02-11T19:54:59.430Z,16.60
2023-02-11T19:57:25.957Z,16.42
2023-02-11T19:59:55.055Z,16.27
2023-02-11T20:02:21.897Z,14.70
2023-02-11T20:04:48.596Z,14.75
2023-02-11T20:07:15.282Z,14.93
2023-02-11T20:09:42.725Z,16.27
2023-02-11T20:12:09.914Z,17.70
2023-02-11T20:14:36.462Z,18.08
2023-02-11T20:17:03.064Z,15.77
2023-02-11T20:19:30.715Z,13.55
2023-02-11T20:21:57.349Z,14.30
2023-02-11T20:24:24.440Z,15.90
2023-02-11T20:26:55.524Z,15.85
2023-02-11T20:29:22.848Z,11.15
2023-02-11T20:31:50.146Z,9.50
2023-02-11T20:34:17.907Z,7.35
2023-02-11T20:36:51.716Z,5.95
2023-02-11T20:39:18.844Z,6.57
2023-02-11T20:41:47.342Z,10.45
2023-02-11T20:44:13.922Z,10.68
2023-02-11T20:46:42.745Z,11.88
2023-02-11T20:49:13.495Z,12.02
2023-02-11T20:51:40.398Z,12.90
2023-02-11T20:54:08.495Z,11.10
2023-02-11T20:56:36.644Z,10.23
2023-02-11T20:59:04.165Z,10.27
2023-02-11T21:01:30.705Z,9.63
2023-02-11T21:03:59.391Z,9.13
2023-02-11T21:06:27.053Z,8.32
2023-02-11T21:08:53.979Z,6.32
2023-02-11T21:11:20.479Z,7.05
2023-02-11T21:13:46.966Z,5.35
2023-02-11T21:16:14.539Z,12.10
2023-02-11T21:18:41.507Z,13.00
2023-02-11T21:21:08.298Z,12.00
2023-02-11T21:23:35.823Z,11.30
2023-02-11T21:26:02.319Z,13.30
2023-02-11T21:28:28.916Z,17.48
2023-02-11T21:30:56.063Z,18.75
2023-02-11T21:33:26.561Z,15.77
2023-02-11T21:36:00.335Z,14.40
2023-02-11T21:38:26.858Z,11.52
2023-02-11T21:40:53.630Z,10.20
2023-02-11T21:43:20.535Z,12.15
2023-02-11T21:45:47.923Z,12.82
2023-02-11T21:48:14.662Z,10.98
2023-02-11T21:50:41.966Z,9.05
2023-02-11T21:53:08.751Z,6.55
2023-02-11T21:55:35.786Z,8.93
2023-02-11T21:58:02.345Z,11.13
2023-02-11T22:00:28.891Z,11.50
2023-02-11T22:02:55.367Z,12.65
2023-02-11T22:05:22.059Z,11.48
2023-02-11T22:07:48.590Z,12.82
2023-02-11T22:10:15.003Z,15.82
2023-02-11T22:12:41.481Z,15.07
2023-02-11T22:15:08.198Z,8.50
2023-02-11T22:17:35.068Z,7.57
2023-02-11T22:20:01.576Z,8.60
2023-02-11T22:22:29.264Z,8.50
2023-02-11T22:24:56.006Z,9.15
2023-02-11T22:27:22.692Z,9.90
2023-02-11T22:29:49.156Z,10.07
2023-02-11T22:32:17.743Z,9.75
2023-02-11T22:34:44.591Z,10.20
2023-02-11T22:37:11.017Z,9.50
2023-02-11T22:39:37.477Z,8.90
2023-02-11T22:42:03.983Z,9.13
2023-02-11T22:44:30.597Z,8.70
2023-02-11T22:46:57.072Z,9.30
2023-02-11T22:49:23.539Z,8.82
2023-02-11T22:51:49.994Z,8.65
2023-02-11T22:54:17.486Z,9.15
2023-02-11T22:56:44.302Z,8.15
2023-02-11T22:59:12.236Z,8.30
2023-02-11T23:01:38.741Z,7.65
2023-02-11T23:04:06.064Z,7.25
2023-02-11T23:06:32.847Z,7.57
2023-02-11T23:08:59.344Z,7.47
2023-02-11T23:11:27.371Z,7.85
2023-02-11T23:13:54.113Z,7.72
2023-02-11T23:16:21.938Z,7.15
2023-02-11T23:18:48.996Z,6.80
2023-02-11T23:21:21.146Z,7.10
2023-02-11T23:23:48.320Z,6.38
2023-02-11T23:26:16.146Z,6.57
2023-02-11T23:28:45.947Z,6.78
2023-02-11T23:31:37.432Z,6.75
2023-02-11T23:34:04.397Z,6.30
2023-02-11T23:36:30.894Z,7.05
2023-02-11T23:38:57.396Z,6.35
2023-02-11T23:41:23.951Z,7.05
2023-02-11T23:43:54.704Z,6.15
2023-02-11T23:46:22.106Z,6.72
2023-02-11T23:48:48.830Z,6.95
2023-02-11T23:51:15.333Z,7.18
2023-02-11T23:53:41.742Z,6.88
2023-02-11T23:56:09.856Z,8.38
2023-02-11T23:58:36.631Z,9.73
